Time;durP1;ratioP1;P1;durP2;ratioP2;P2;SDS_P1;SDS_P2;PMS_P1;PMS_P2;Temp;Humidity;BMP_temperature;BMP_pressure;BME280_temperature;BME280_humidity;BME280_pressure;Samples;Min_cycle;Max_cycle;Signal;HPM_P1;HPM_P2
2021/03/13 00:00:39;;;;;;;135.45;81.50;;;;;;;5.22;62.71;95062.88;5100046;28;20204;-70
2021/03/13 00:03:05;;;;;;;147.30;89.57;;;;;;;5.03;63.01;95067.28;5089572;28;20612;-70
2021/03/13 00:05:38;;;;;;;141.98;86.40;;;;;;;4.71;64.20;95071.78;5100390;28;20775;-70
2021/03/13 00:08:05;;;;;;;139.75;83.72;;;;;;;5.04;63.60;95066.25;5089492;28;20191;-71
2021/03/13 00:10:33;;;;;;;131.52;76.35;;;;;;;5.22;63.21;95078.47;5099987;28;20205;-70
2021/03/13 00:13:00;;;;;;;133.93;79.35;;;;;;;5.09;63.01;95079.41;5089664;28;20245;-70
2021/03/13 00:15:27;;;;;;;135.57;79.03;;;;;;;4.70;64.58;95070.22;5100768;28;20210;-70
2021/03/13 00:17:56;;;;;;;130.57;72.55;;;;;;;4.77;64.09;95068.34;5089282;28;20318;-70
2021/03/13 00:20:24;;;;;;;127.20;70.00;;;;;;;4.93;63.89;95062.59;5100407;28;20205;-70
2021/03/13 00:22:52;;;;;;;120.18;68.75;;;;;;;4.71;64.75;95060.59;5089310;28;20264;-70
2021/03/13 00:25:20;;;;;;;119.68;68.90;;;;;;;4.39;65.99;95054.75;5103066;28;20193;-71
2021/03/13 00:27:46;;;;;;;122.40;66.80;;;;;;;4.76;65.06;95043.38;5093347;28;20286;-70
2021/03/13 00:30:19;;;;;;;119.90;64.38;;;;;;;4.97;64.18;95048.16;5103259;28;20277;-72
2021/03/13 00:32:52;;;;;;;112.45;63.17;;;;;;;4.94;63.99;95051.19;5093069;28;20215;-70
2021/03/13 00:35:19;;;;;;;112.78;64.38;;;;;;;4.88;64.37;95044.28;5103912;28;20279;-70
2021/03/13 00:37:47;;;;;;;112.95;63.25;;;;;;;5.07;63.54;95051.03;5099828;28;20270;-69
2021/03/13 00:40:16;;;;;;;114.10;63.97;;;;;;;5.20;63.78;95054.50;5104541;28;20205;-70
2021/03/13 00:42:43;;;;;;;115.03;62.13;;;;;;;5.10;63.42;95045.41;5093464;28;20199;-71
2021/03/13 00:45:12;;;;;;;110.38;63.15;;;;;;;5.25;63.70;95052.03;5102333;28;20210;-69
2021/03/13 00:47:40;;;;;;;117.80;67.05;;;;;;;5.25;63.31;95052.03;5093239;28;20225;-71
2021/03/13 00:50:09;;;;;;;118.80;67.40;;;;;;;5.31;63.19;95051.19;5100682;28;20244;-70
2021/03/13 00:52:35;;;;;;;112.32;63.67;;;;;;;5.18;63.58;95039.91;5092465;28;20668;-71
2021/03/13 00:55:05;;;;;;;106.50;62.42;;;;;;;5.29;63.62;95042.81;5098764;28;20297;-71
2021/03/13 00:57:32;;;;;;;112.03;64.25;;;;;;;5.24;63.29;95040.84;5094750;28;20298;-69
2021/03/13 00:59:59;;;;;;;114.68;65.63;;;;;;;5.05;64.65;95034.88;5100140;28;20660;-70
2021/03/13 01:02:28;;;;;;;113.13;65.38;;;;;;;5.19;63.90;95040.72;5093505;28;20290;-72
2021/03/13 01:04:55;;;;;;;108.97;64.10;;;;;;;5.23;63.74;95039.28;5097804;28;20226;-71
2021/03/13 01:07:23;;;;;;;110.07;66.57;;;;;;;5.24;63.64;95040.06;5094238;28;20235;-71
2021/03/13 01:09:51;;;;;;;112.57;63.28;;;;;;;5.14;63.51;95046.59;5099563;28;20199;-71
2021/03/13 01:12:18;;;;;;;111.20;66.65;;;;;;;5.16;63.92;95028.19;5096487;28;20225;-70
2021/03/13 01:14:45;;;;;;;125.90;71.95;;;;;;;5.22;63.86;95029.88;5096487;28;20194;-71
2021/03/13 01:17:12;;;;;;;133.23;76.40;;;;;;;5.21;63.68;95019.72;5097166;28;20207;-70
2021/03/13 01:19:39;;;;;;;128.63;76.07;;;;;;;5.13;64.21;95024.19;5095570;28;20233;-70
2021/03/13 01:22:07;;;;;;;135.30;77.80;;;;;;;5.18;63.86;95007.19;5098346;28;20221;-70
2021/03/13 01:24:34;;;;;;;141.27;81.28;;;;;;;5.14;63.73;95015.41;5094874;28;20256;-71
2021/03/13 01:27:00;;;;;;;171.38;90.43;;;;;;;5.15;63.61;95026.56;5097294;28;20222;-69
2021/03/13 01:29:27;;;;;;;168.60;89.82;;;;;;;5.05;63.57;95016.69;5093541;28;20203;-69
2021/03/13 01:32:02;;;;;;;189.02;94.50;;;;;;;5.05;63.60;95021.88;5097477;28;20218;-71
2021/03/13 01:34:33;;;;;;;190.13;95.97;;;;;;;5.17;63.41;95024.56;5095098;28;20206;-69
2021/03/13 01:37:08;;;;;;;196.80;99.15;;;;;;;4.99;63.57;95017.59;5097194;28;20198;-70
2021/03/13 01:39:40;;;;;;;193.90;96.57;;;;;;;4.81;64.32;95016.78;5094800;28;20214;-69
2021/03/13 01:42:12;;;;;;;195.43;97.38;;;;;;;4.95;63.69;95026.81;5095421;28;20305;-69
2021/03/13 01:44:39;;;;;;;188.93;96.65;;;;;;;4.81;64.47;95027.19;5095939;28;20206;-71
2021/03/13 01:47:12;;;;;;;185.52;93.32;;;;;;;4.99;63.85;95016.78;5095617;28;20294;-69
2021/03/13 01:49:39;;;;;;;184.65;94.18;;;;;;;4.73;64.60;95017.88;5096475;28;20198;-70
2021/03/13 01:52:06;;;;;;;178.38;91.30;;;;;;;4.73;64.98;95020.47;5095903;28;20215;-70
2021/03/13 01:54:32;;;;;;;175.88;90.32;;;;;;;4.86;64.72;95019.53;5093383;28;20604;-70
2021/03/13 01:57:00;;;;;;;180.70;91.03;;;;;;;4.95;64.28;95007.84;5097062;28;20219;-68
2021/03/13 01:59:29;;;;;;;173.27;89.68;;;;;;;4.94;64.92;94999.28;5094989;28;20234;-70
2021/03/13 02:01:58;;;;;;;167.27;87.90;;;;;;;4.86;64.94;94998.75;5096661;28;20302;-69
2021/03/13 02:04:25;;;;;;;174.70;89.35;;;;;;;4.64;65.40;94993.22;5093298;28;20298;-71
2021/03/13 02:07:22;;;;;;;174.30;90.40;;;;;;;4.88;64.99;95005.31;5104247;28;20265;-71
2021/03/13 02:10:44;;;;;;;171.85;88.35;;;;;;;4.43;66.19;95009.22;5085253;28;20206;-70
2021/03/13 02:13:33;;;;;;;167.77;87.82;;;;;;;4.63;66.14;95002.03;5048675;28;20200;-70
2021/03/13 02:16:18;;;;;;;185.00;90.47;;;;;;;4.64;66.08;95003.59;5102969;28;20207;-69
2021/03/13 02:18:51;;;;;;;174.60;86.63;;;;;;;4.76;65.45;94999.25;5091575;28;20219;-70
2021/03/13 02:21:23;;;;;;;183.25;86.93;;;;;;;4.77;65.31;95000.84;5106591;28;20213;-70
2021/03/13 02:24:09;;;;;;;167.27;85.68;;;;;;;4.81;65.59;94996.81;5105120;28;20210;-71
2021/03/13 02:26:51;;;;;;;147.23;81.05;;;;;;;4.92;65.01;95001.28;5099967;28;20213;-71
2021/03/13 02:29:53;;;;;;;146.32;79.32;;;;;;;4.92;65.13;94992.72;5095375;28;20343;-70
2021/03/13 02:33:01;;;;;;;147.43;80.60;;;;;;;4.95;65.34;94990.47;5092073;28;20587;-70
2021/03/13 02:35:44;;;;;;;148.95;79.40;;;;;;;4.79;65.20;94988.47;5100631;28;20334;-70
2021/03/13 02:38:24;;;;;;;153.93;81.15;;;;;;;4.81;65.41;94988.25;5089350;28;20226;-71
2021/03/13 02:40:52;;;;;;;148.10;79.43;;;;;;;4.78;65.47;94968.69;5099686;28;20672;-70
2021/03/13 02:43:22;;;;;;;142.68;78.28;;;;;;;4.87;65.63;94977.00;5088335;28;20210;-69
2021/03/13 02:45:56;;;;;;;137.77;77.78;;;;;;;4.89;65.55;94977.56;5101249;28;20291;-70
2021/03/13 02:48:24;;;;;;;145.55;79.97;;;;;;;4.91;65.18;94986.72;5088253;28;20203;-70
2021/03/13 02:50:53;;;;;;;136.75;74.45;;;;;;;4.92;65.15;94974.53;5099797;28;20196;-70
2021/03/13 02:53:26;;;;;;;137.82;72.60;;;;;;;4.92;65.52;94962.34;5089526;28;20203;-71
2021/03/13 02:55:58;;;;;;;129.30;72.20;;;;;;;4.93;65.55;94961.31;5097688;28;20210;-70
2021/03/13 02:58:28;;;;;;;137.93;74.10;;;;;;;4.98;65.18;94953.66;5107489;28;20229;-70
2021/03/13 03:00:56;;;;;;;130.27;70.30;;;;;;;4.80;65.50;94966.66;5101506;28;20207;-71
2021/03/13 03:03:23;;;;;;;134.95;70.65;;;;;;;4.92;65.61;94964.94;5089352;28;20202;-70
2021/03/13 03:06:02;;;;;;;134.45;73.53;;;;;;;4.85;66.03;94969.41;5098156;28;20707;-71
2021/03/13 03:08:35;;;;;;;129.57;69.45;;;;;;;4.99;65.57;94970.03;5108419;28;21296;-70
2021/03/13 03:11:02;;;;;;;118.75;67.60;;;;;;;4.87;65.47;94977.75;5098351;28;20206;-70
2021/03/13 03:13:29;;;;;;;117.80;64.88;;;;;;;4.73;66.30;94963.38;5089052;28;20199;-69
2021/03/13 03:15:59;;;;;;;114.10;63.42;;;;;;;4.72;66.02;94956.59;5088807;28;20211;-70
2021/03/13 03:18:27;;;;;;;109.97;59.45;;;;;;;4.59;66.80;94954.16;5087609;28;20219;-70
2021/03/13 03:20:57;;;;;;;107.20;60.80;;;;;;;4.43;67.34;94962.50;5097380;28;20203;-70
2021/03/13 03:23:23;;;;;;;99.07;56.47;;;;;;;4.66;66.34;94964.44;5088303;28;20306;-70
2021/03/13 03:25:55;;;;;;;118.95;64.47;;;;;;;4.58;66.15;94957.75;5091951;28;20202;-69
2021/03/13 03:28:25;;;;;;;122.80;65.25;;;;;;;4.57;66.46;94961.34;5108188;28;20252;-69
2021/03/13 03:31:01;;;;;;;133.18;68.28;;;;;;;4.54;66.21;94961.00;5097037;28;20293;-70
2021/03/13 03:33:31;;;;;;;123.13;63.92;;;;;;;4.61;65.81;94965.09;5108444;28;20614;-71
2021/03/13 03:36:03;;;;;;;105.82;58.67;;;;;;;4.53;65.90;94965.38;5097983;28;20293;-70
2021/03/13 03:38:33;;;;;;;97.07;54.50;;;;;;;4.59;65.04;94977.50;5107005;28;20593;-69
2021/03/13 03:41:00;;;;;;;94.47;52.45;;;;;;;4.54;65.13;94969.59;5098420;28;20219;-70
2021/03/13 03:43:44;;;;;;;96.10;54.53;;;;;;;4.51;65.07;94971.78;5088808;28;20293;-69
2021/03/13 03:46:17;;;;;;;94.00;54.33;;;;;;;4.50;65.20;94971.00;5097317;28;20630;-69
2021/03/13 03:48:45;;;;;;;86.88;53.45;;;;;;;4.46;65.16;94989.81;5091035;28;20215;-69
2021/03/13 03:51:25;;;;;;;91.75;52.40;;;;;;;4.37;65.46;94989.31;5096288;28;20206;-71
2021/03/13 03:54:10;;;;;;;87.82;51.38;;;;;;;4.53;65.11;94986.13;5090730;28;20675;-70
2021/03/13 03:56:40;;;;;;;88.60;54.53;;;;;;;4.44;65.07;94992.63;5098784;28;20636;-70
2021/03/13 03:59:15;;;;;;;98.05;52.70;;;;;;;4.43;65.09;94992.84;5094337;28;20203;-69
2021/03/13 04:01:48;;;;;;;95.35;55.88;;;;;;;4.29;65.73;94988.78;5102275;28;20727;-70
2021/03/13 04:04:19;;;;;;;90.57;52.40;;;;;;;4.43;65.53;94983.25;5095963;28;20805;-69
2021/03/13 04:06:47;;;;;;;93.93;54.47;;;;;;;4.48;65.14;94980.81;5104971;28;20245;-71
2021/03/13 04:09:17;;;;;;;91.00;53.33;;;;;;;4.41;65.59;94987.06;5107999;28;20554;-70
2021/03/13 04:11:46;;;;;;;91.43;53.00;;;;;;;4.48;65.80;94998.16;5104687;28;20218;-70
2021/03/13 04:14:13;;;;;;;95.38;55.03;;;;;;;4.40;65.71;94999.25;5108017;28;20193;-71
2021/03/13 04:16:40;;;;;;;95.57;54.63;;;;;;;4.39;65.86;95005.44;5101474;28;20191;-69
2021/03/13 04:19:08;;;;;;;93.80;53.25;;;;;;;4.50;65.72;95011.72;5096075;28;20230;-70
2021/03/13 04:21:35;;;;;;;96.05;53.55;;;;;;;4.50;65.36;95002.16;5103163;28;20226;-69
2021/03/13 04:24:02;;;;;;;90.47;51.88;;;;;;;4.55;65.58;94991.91;5109780;28;20190;-69
2021/03/13 04:26:30;;;;;;;90.05;52.67;;;;;;;4.67;65.14;94987.56;5102277;28;20234;-70
2021/03/13 04:28:57;;;;;;;86.88;49.95;;;;;;;4.63;65.25;94981.25;5096651;28;20256;-70
2021/03/13 04:31:29;;;;;;;90.55;53.30;;;;;;;4.52;65.11;94952.63;5101598;28;20207;-71
2021/03/13 04:33:58;;;;;;;87.32;53.25;;;;;;;4.31;65.84;94990.16;5095574;28;20274;-70
2021/03/13 04:36:28;;;;;;;82.20;49.85;;;;;;;4.45;65.44;94978.66;5101477;28;20286;-70
2021/03/13 04:38:57;;;;;;;83.35;50.33;;;;;;;4.45;65.50;94976.06;5102224;28;20241;-70
2021/03/13 04:41:26;;;;;;;83.45;48.40;;;;;;;4.50;65.48;94978.81;5101548;28;20194;-71
2021/03/13 04:43:53;;;;;;;80.53;47.83;;;;;;;4.39;65.62;94971.72;5094991;28;20307;-70
2021/03/13 04:46:21;;;;;;;84.95;49.35;;;;;;;4.43;65.45;94980.69;5100848;28;20203;-70
2021/03/13 04:48:48;;;;;;;78.70;47.45;;;;;;;4.42;65.17;94976.47;5094519;28;20188;-70
2021/03/13 04:51:19;;;;;;;77.32;46.50;;;;;;;4.47;64.86;94981.81;5101136;28;20199;-69
2021/03/13 04:53:47;;;;;;;78.10;47.40;;;;;;;4.55;64.54;94981.53;5094741;28;20191;-69
2021/03/13 04:56:14;;;;;;;80.40;47.30;;;;;;;4.52;64.78;94979.38;5101355;28;20689;-70
2021/03/13 04:58:41;;;;;;;81.47;47.00;;;;;;;4.42;64.89;94971.28;5094316;28;20989;-69
2021/03/13 05:01:07;;;;;;;79.10;46.22;;;;;;;4.63;64.49;94983.84;5101424;28;20683;-70
2021/03/13 05:03:40;;;;;;;74.10;45.58;;;;;;;4.62;64.24;94977.06;5094437;28;20197;-69
2021/03/13 05:06:07;;;;;;;74.80;45.75;;;;;;;4.55;64.26;94984.13;5109222;28;20235;-70
2021/03/13 05:08:34;;;;;;;74.63;45.88;;;;;;;4.58;63.99;94973.31;5094279;28;20570;-66
2021/03/13 05:11:00;;;;;;;78.15;45.47;;;;;;;4.51;64.25;94972.59;5091151;28;20674;-67
2021/03/13 05:13:27;;;;;;;73.05;45.90;;;;;;;4.45;64.28;94965.69;5106173;28;20206;-70
2021/03/13 05:15:54;;;;;;;86.78;47.25;;;;;;;4.53;64.41;94980.94;5103368;28;20267;-74
2021/03/13 05:18:20;;;;;;;82.35;48.65;;;;;;;4.41;64.90;94987.06;5092230;28;20305;-70
2021/03/13 05:20:47;;;;;;;84.10;50.25;;;;;;;4.38;64.84;94992.69;5110049;28;20297;-67
2021/03/13 05:23:13;;;;;;;78.63;49.80;;;;;;;4.45;65.49;94993.44;5111688;28;20945;-69
2021/03/13 05:25:40;;;;;;;77.03;49.15;;;;;;;4.51;64.86;94995.94;5111689;28;20186;-71
2021/03/13 05:28:06;;;;;;;79.90;48.33;;;;;;;4.60;64.94;95006.84;5112089;28;20199;-74
2021/03/13 05:30:33;;;;;;;108.88;62.28;;;;;;;4.55;64.90;95001.50;5104947;28;20187;-71
2021/03/13 05:32:59;;;;;;;111.43;64.28;;;;;;;4.50;64.80;95004.75;5100517;28;20663;-70
2021/03/13 05:35:26;;;;;;;105.32;60.33;;;;;;;4.60;64.32;95018.00;5111741;28;20198;-71
2021/03/13 05:37:52;;;;;;;98.68;59.00;;;;;;;4.40;65.33;94991.47;5111832;28;20198;-70
2021/03/13 05:40:19;;;;;;;99.30;60.00;;;;;;;4.63;64.77;95012.41;5111676;28;20245;-71
2021/03/13 05:42:45;;;;;;;103.03;63.78;;;;;;;4.66;64.65;94998.97;5111621;28;20336;-71
2021/03/13 05:45:12;;;;;;;99.40;60.47;;;;;;;4.76;64.44;95014.06;5111011;28;20551;-70
2021/03/13 05:47:39;;;;;;;101.90;62.53;;;;;;;4.84;64.09;95019.75;5111701;28;20233;-70
2021/03/13 05:50:09;;;;;;;101.35;62.47;;;;;;;4.90;64.40;95013.69;5111591;28;20325;-71
2021/03/13 05:52:37;;;;;;;101.47;60.55;;;;;;;5.01;63.85;95010.38;5111349;28;20194;-70
2021/03/13 05:55:06;;;;;;;100.45;61.08;;;;;;;5.08;63.56;95016.28;5111338;28;20273;-71
2021/03/13 05:57:33;;;;;;;97.63;57.97;;;;;;;5.08;63.34;95011.09;5111280;28;20191;-72
2021/03/13 06:00:01;;;;;;;101.38;61.40;;;;;;;4.90;64.10;95013.69;5109397;28;20226;-72
2021/03/13 06:02:37;;;;;;;105.93;61.70;;;;;;;5.11;63.34;95017.63;5110388;28;20294;-73
2021/03/13 06:05:06;;;;;;;101.72;63.05;;;;;;;5.21;63.21;95011.91;5110072;28;20322;-73
2021/03/13 06:07:33;;;;;;;105.80;63.28;;;;;;;5.24;63.26;95020.06;5111264;28;20195;-74
2021/03/13 06:09:59;;;;;;;106.03;64.72;;;;;;;5.06;63.72;95023.50;5111040;28;20226;-73
2021/03/13 06:12:26;;;;;;;100.10;62.50;;;;;;;5.25;63.82;95036.44;5111255;27;20205;-73
2021/03/13 06:14:54;;;;;;;106.38;63.90;;;;;;;5.11;63.96;95015.84;5110649;28;20198;-73
2021/03/13 06:17:22;;;;;;;88.07;57.30;;;;;;;4.99;64.02;95022.78;5110963;28;20613;-72
2021/03/13 06:19:55;;;;;;;91.20;58.15;;;;;;;5.00;63.94;95032.13;5110748;28;20279;-72
2021/03/13 06:22:41;;;;;;;85.13;53.95;;;;;;;5.18;63.49;95032.13;5110810;28;20199;-73
2021/03/13 06:25:29;;;;;;;86.80;55.05;;;;;;;5.28;63.93;95042.00;5110795;28;20253;-73
2021/03/13 06:28:29;;;;;;;88.57;52.28;;;;;;;5.38;63.24;95051.88;5110931;28;20178;-74
2021/03/13 06:31:04;;;;;;;78.03;50.35;;;;;;;4.82;63.74;95037.34;5110231;28;20618;-73
2021/03/13 06:33:33;;;;;;;83.43;51.65;;;;;;;5.10;63.71;95045.41;5115386;28;20197;-71
2021/03/13 06:36:02;;;;;;;81.50;48.95;;;;;;;5.38;63.39;95052.69;5121234;28;20236;-71
2021/03/13 06:38:30;;;;;;;77.05;47.75;;;;;;;5.54;62.98;95038.28;5110791;28;20179;-71
2021/03/13 06:41:09;;;;;;;104.78;58.83;;;;;;;5.73;62.73;95045.03;5110124;28;20191;-73
2021/03/13 06:43:35;;;;;;;76.00;46.95;;;;;;;5.97;61.88;95038.88;5110587;28;20506;-73
2021/03/13 06:46:04;;;;;;;73.95;46.15;;;;;;;6.04;61.46;95068.97;5109813;28;20239;-72
2021/03/13 06:49:03;;;;;;;69.45;43.42;;;;;;;6.23;61.04;95071.50;5110569;28;20228;-73
2021/03/13 06:51:37;;;;;;;70.15;43.85;;;;;;;6.32;61.30;95070.97;5075582;28;20293;-74
2021/03/13 06:54:07;;;;;;;65.93;41.67;;;;;;;6.44;61.36;95063.94;5110919;28;20202;-71
2021/03/13 06:56:40;;;;;;;65.22;42.17;;;;;;;6.47;60.90;95053.09;5109824;28;20191;-72
2021/03/13 06:59:49;;;;;;;67.50;41.92;;;;;;;6.25;61.02;95052.06;5110253;28;20211;-73
2021/03/13 07:02:21;;;;;;;65.13;41.95;;;;;;;6.31;60.70;95052.97;5110226;28;20273;-73
2021/03/13 07:05:06;;;;;;;68.20;43.30;;;;;;;6.48;60.54;95033.84;5110025;28;20197;-72
2021/03/13 07:07:34;;;;;;;63.40;42.13;;;;;;;6.62;59.97;95069.06;5110062;28;20285;-72
2021/03/13 07:10:05;;;;;;;66.57;43.53;;;;;;;6.77;59.75;95072.00;5110321;28;20194;-73
2021/03/13 07:12:42;;;;;;;65.32;42.67;;;;;;;7.12;59.38;95067.53;5109940;28;20198;-72
2021/03/13 07:15:26;;;;;;;59.92;38.63;;;;;;;7.07;58.32;95064.03;5109424;28;20672;-72
2021/03/13 07:17:55;;;;;;;52.35;34.47;;;;;;;7.26;57.02;95046.44;5110136;28;20236;-72
2021/03/13 07:20:40;;;;;;;55.05;36.60;;;;;;;7.19;57.05;95068.22;5109766;28;20226;-71
2021/03/13 07:23:06;;;;;;;48.38;31.60;;;;;;;6.98;56.58;95050.59;5109290;28;20198;-74
2021/03/13 07:25:33;;;;;;;45.15;29.85;;;;;;;7.29;56.01;95066.81;5109222;28;20273;-73
2021/03/13 07:28:03;;;;;;;45.85;29.50;;;;;;;7.49;55.12;95067.22;5108437;28;20198;-73
2021/03/13 07:30:31;;;;;;;57.78;34.70;;;;;;;7.74;55.40;95055.44;5107963;28;20194;-72
2021/03/13 07:33:13;;;;;;;52.90;33.33;;;;;;;7.87;55.07;95033.50;5104447;28;20197;-72
2021/03/13 07:35:47;;;;;;;53.78;34.55;;;;;;;8.05;55.00;95056.78;5100468;28;20281;-72
2021/03/13 07:38:15;;;;;;;53.00;35.30;;;;;;;8.09;54.76;95042.22;5104774;28;20202;-72
2021/03/13 07:40:46;;;;;;;50.95;34.88;;;;;;;8.30;55.27;95049.41;5098822;28;20744;-73
2021/03/13 07:43:14;;;;;;;57.80;36.83;;;;;;;8.36;54.06;95058.88;5105611;28;20679;-72
2021/03/13 07:45:41;;;;;;;60.67;36.63;;;;;;;8.52;54.30;95060.69;5106321;28;20194;-73
2021/03/13 07:48:09;;;;;;;58.70;38.80;;;;;;;8.30;53.76;95054.63;5109033;28;20242;-72
2021/03/13 07:50:43;;;;;;;63.10;37.53;;;;;;;8.46;54.14;95039.97;5111992;28;20439;-69
2021/03/13 07:53:10;;;;;;;51.30;35.03;;;;;;;8.93;56.06;95052.44;5115049;28;20890;-72
2021/03/13 07:55:38;;;;;;;92.37;67.10;;;;;;;9.00;55.62;95053.03;5107922;28;20814;-75
2021/03/13 07:58:08;;;;;;;82.10;54.37;;;;;;;8.82;53.15;95061.16;5089578;28;20441;-73
2021/03/13 08:00:46;;;;;;;63.90;42.20;;;;;;;9.23;53.22;95060.66;5089314;28;20542;-73
2021/03/13 08:03:32;;;;;;;57.83;36.00;;;;;;;9.15;52.64;95048.03;5089186;28;21023;-71
2021/03/13 08:06:01;;;;;;;59.37;34.87;;;;;;;9.20;52.78;95050.69;5091253;28;21022;-71
2021/03/13 08:08:42;;;;;;;52.80;35.20;;;;;;;9.41;51.87;95053.56;5089997;28;20526;-74
2021/03/13 08:11:13;;;;;;;55.03;34.27;;;;;;;9.49;52.20;95053.91;5088980;28;20472;-74
2021/03/13 08:13:39;;;;;;;204.33;159.40;;;;;;;9.41;51.32;95051.75;5101361;28;20543;-72
2021/03/13 08:16:11;;;;;;;58.63;36.90;;;;;;;9.68;51.90;95047.34;5109279;28;20532;-74
2021/03/13 08:18:39;;;;;;;69.13;48.13;;;;;;;9.94;51.34;95056.22;5110154;28;20530;-75
2021/03/13 08:21:17;;;;;;;55.53;34.97;;;;;;;9.81;51.98;95056.63;5109431;28;20769;-72
2021/03/13 08:24:01;;;;;;;51.83;32.57;;;;;;;9.91;51.85;95041.00;5109511;28;20556;-76
2021/03/13 08:26:33;;;;;;;49.33;32.47;;;;;;;10.10;50.39;95056.16;5108967;28;20448;-73
2021/03/13 08:29:07;;;;;;;45.70;30.87;;;;;;;10.21;49.72;95062.28;5109522;28;20444;-73
2021/03/13 08:31:37;;;;;;;43.87;30.13;;;;;;;10.29;49.17;95059.22;5109237;28;20436;-73
2021/03/13 08:34:04;;;;;;;47.47;33.53;;;;;;;10.43;50.14;95070.84;5109514;28;20535;-72
2021/03/13 08:36:45;;;;;;;62.10;36.10;;;;;;;10.56;49.78;95065.19;5109566;28;20471;-73
2021/03/13 08:39:35;;;;;;;57.53;40.07;;;;;;;10.55;49.04;95055.75;5109612;28;20518;-71
2021/03/13 08:42:02;;;;;;;58.23;36.93;;;;;;;10.76;49.04;95060.09;5109637;28;20949;-71
2021/03/13 08:44:37;;;;;;;67.37;40.30;;;;;;;10.77;49.17;95060.88;5109041;28;20497;-73
2021/03/13 08:47:04;;;;;;;60.47;40.60;;;;;;;10.68;48.67;95065.81;5112956;28;20467;-75
2021/03/13 08:49:30;;;;;;;67.73;42.07;;;;;;;10.69;48.42;95064.75;5112706;28;20440;-74
2021/03/13 08:52:02;;;;;;;61.27;40.87;;;;;;;10.44;48.40;95067.19;5112947;28;20452;-75
2021/03/13 08:54:38;;;;;;;54.97;36.27;;;;;;;10.29;47.99;95074.94;5112813;28;20469;-74
2021/03/13 08:57:40;;;;;;;52.73;36.53;;;;;;;10.31;49.38;95078.06;5113302;28;20839;-73
2021/03/13 09:00:08;;;;;;;50.00;32.53;;;;;;;10.40;48.14;95081.81;5112353;28;20479;-74
2021/03/13 09:02:39;;;;;;;335.87;177.27;;;;;;;10.48;47.17;95057.78;5112887;28;20460;-71
2021/03/13 09:05:12;;;;;;;65.40;40.73;;;;;;;10.78;48.99;95081.63;5112275;28;20543;-75
2021/03/13 09:07:41;;;;;;;52.13;31.97;;;;;;;10.71;48.27;95081.00;5112638;28;20981;-71
2021/03/13 09:10:08;;;;;;;42.20;29.83;;;;;;;10.53;47.93;95070.91;5112692;28;20494;-71
2021/03/13 09:12:37;;;;;;;44.27;31.23;;;;;;;10.52;47.66;95079.84;5112169;28;20558;-72
2021/03/13 09:15:07;;;;;;;42.27;29.33;;;;;;;10.61;47.73;95078.34;5111710;28;20494;-72
2021/03/13 09:17:34;;;;;;;45.03;28.37;;;;;;;10.77;47.54;95082.63;5112082;28;20432;-71
2021/03/13 09:20:16;;;;;;;73.13;48.23;;;;;;;10.68;48.29;95078.91;5111762;28;21023;-73
2021/03/13 09:22:45;;;;;;;249.67;182.03;;;;;;;11.01;47.75;95072.56;5112091;28;20444;-73
2021/03/13 09:25:16;;;;;;;50.03;33.63;;;;;;;11.43;48.57;95075.16;5111909;28;20543;-72
2021/03/13 09:27:44;;;;;;;42.40;30.60;;;;;;;11.65;47.40;95078.41;5097334;28;20532;-71
2021/03/13 09:30:12;;;;;;;49.47;31.93;;;;;;;11.74;47.14;95082.13;5098368;28;20440;-71
2021/03/13 09:32:47;;;;;;;50.60;32.77;;;;;;;11.55;47.33;95094.88;5099798;28;20457;-71
2021/03/13 09:35:15;;;;;;;48.77;31.80;;;;;;;11.61;47.04;95082.56;5096479;28;20476;-72
2021/03/13 09:37:42;;;;;;;47.20;32.90;;;;;;;11.46;48.00;95101.66;5092113;28;20434;-70
2021/03/13 09:40:13;;;;;;;46.53;32.67;;;;;;;11.43;47.78;95101.38;5097329;28;20488;-70
2021/03/13 09:42:44;;;;;;;48.80;33.70;;;;;;;11.18;49.64;95099.44;5099070;28;20456;-71
2021/03/13 09:45:20;;;;;;;49.00;34.47;;;;;;;11.09;49.73;95088.59;5102873;28;20444;-71
2021/03/13 09:47:56;;;;;;;52.23;36.43;;;;;;;11.00;51.57;95074.41;5096841;28;20456;-71
2021/03/13 09:50:31;;;;;;;53.00;35.27;;;;;;;10.83;52.67;95072.97;5097452;27;20447;-74
2021/03/13 09:53:03;;;;;;;117.50;93.67;;;;;;;10.82;54.56;95089.75;5100106;28;20444;-71
2021/03/13 09:55:30;;;;;;;49.67;35.20;;;;;;;10.93;56.71;95071.22;5100358;28;20466;-71
2021/03/13 09:57:59;;;;;;;46.27;34.07;;;;;;;10.98;56.26;95081.72;5111083;28;20436;-71
2021/03/13 10:00:33;;;;;;;45.83;33.67;;;;;;;11.68;54.41;95067.41;5111078;28;20533;-70
2021/03/13 10:03:09;;;;;;;56.63;36.83;;;;;;;12.01;52.44;95074.84;5111715;28;20440;-70
2021/03/13 10:05:35;;;;;;;53.33;36.37;;;;;;;12.21;51.26;95072.25;5110405;28;20466;-72
2021/03/13 10:08:06;;;;;;;50.30;35.90;;;;;;;12.15;50.10;95062.81;5111812;28;20535;-71
2021/03/13 10:10:33;;;;;;;54.47;35.67;;;;;;;12.40;50.61;95065.47;5110002;28;21034;-70
2021/03/13 10:13:02;;;;;;;48.43;33.03;;;;;;;12.61;49.13;95061.78;5111072;28;20432;-72
2021/03/13 10:15:35;;;;;;;48.70;34.03;;;;;;;12.58;49.01;95054.44;5110938;28;20491;-69
2021/03/13 10:18:10;;;;;;;48.67;32.47;;;;;;;12.70;48.73;95062.06;5111516;28;20452;-70
2021/03/13 10:20:39;;;;;;;49.27;31.57;;;;;;;12.83;46.76;95054.41;5110900;28;20578;-70
2021/03/13 10:23:21;;;;;;;42.67;31.67;;;;;;;13.22;46.06;95062.53;5111260;27;20524;-70
2021/03/13 10:26:00;;;;;;;45.50;32.30;;;;;;;13.29;44.87;95051.69;5112696;28;20531;-72
2021/03/13 10:28:35;;;;;;;44.87;31.50;;;;;;;13.28;44.36;95065.94;5111634;28;20447;-72
2021/03/13 10:31:29;;;;;;;41.73;30.60;;;;;;;13.37;46.05;95069.59;5113410;28;20489;-70
2021/03/13 10:34:00;;;;;;;41.70;28.90;;;;;;;13.31;45.94;95073.28;5109854;28;20985;-71
2021/03/13 10:36:46;;;;;;;38.80;26.83;;;;;;;13.46;46.27;95078.50;5112602;28;20440;-70
2021/03/13 10:39:12;;;;;;;38.40;27.73;;;;;;;13.63;45.63;95073.72;5111339;28;20486;-71
2021/03/13 10:41:49;;;;;;;40.43;27.77;;;;;;;13.34;44.12;95075.41;5110506;28;20436;-72
2021/03/13 10:44:17;;;;;;;39.43;25.97;;;;;;;13.23;44.42;95069.34;5111184;28;20483;-70
2021/03/13 10:46:43;;;;;;;36.27;26.10;;;;;;;13.34;45.22;95065.63;5110725;28;20442;-70
2021/03/13 10:49:11;;;;;;;32.00;24.27;;;;;;;13.83;43.47;95048.06;5111640;28;20543;-71
2021/03/13 10:51:42;;;;;;;37.30;24.30;;;;;;;13.97;43.64;95053.53;5110403;28;20512;-70
2021/03/13 10:54:29;;;;;;;29.80;22.23;;;;;;;13.92;44.45;95051.69;5110856;28;20440;-70
2021/03/13 10:57:05;;;;;;;31.67;20.07;;;;;;;14.08;43.96;95049.78;5111240;28;20432;-71
2021/03/13 10:59:33;;;;;;;27.13;19.43;;;;;;;14.36;43.38;95054.34;5110357;28;20467;-71
2021/03/13 11:01:59;;;;;;;30.10;19.77;;;;;;;14.14;42.59;95038.16;5110692;28;20447;-71
2021/03/13 11:04:26;;;;;;;27.87;19.03;;;;;;;14.26;42.63;95051.78;5110198;28;20448;-70
2021/03/13 11:06:54;;;;;;;31.80;23.27;;;;;;;14.24;41.36;95053.88;5111151;27;20522;-69
2021/03/13 11:09:23;;;;;;;28.83;20.90;;;;;;;13.99;43.74;95051.41;5109709;28;20431;-70
2021/03/13 11:11:50;;;;;;;29.67;18.93;;;;;;;13.98;44.67;95060.34;5112140;28;20982;-69
2021/03/13 11:14:17;;;;;;;28.80;17.80;;;;;;;13.80;44.00;95064.41;5110673;28;21022;-69
2021/03/13 11:16:44;;;;;;;28.60;17.47;;;;;;;13.59;45.27;95054.25;5110152;28;20428;-71
2021/03/13 11:19:11;;;;;;;26.73;16.70;;;;;;;13.51;45.26;95060.06;5110724;28;20505;-70
2021/03/13 11:21:38;;;;;;;22.87;15.27;;;;;;;13.34;44.55;95063.00;5110364;28;20512;-70
2021/03/13 11:24:05;;;;;;;23.27;14.47;;;;;;;13.06;45.66;95051.22;5094248;28;20461;-70
2021/03/13 11:26:32;;;;;;;20.27;14.00;;;;;;;13.57;47.98;95046.63;5106658;28;20813;-70
2021/03/13 11:28:58;;;;;;;14.17;11.27;;;;;;;13.48;44.00;95029.81;5103323;28;20877;-68
2021/03/13 11:31:25;;;;;;;77.73;59.27;;;;;;;14.23;42.17;95031.25;5098695;28;20457;-70
2021/03/13 11:33:52;;;;;;;29.37;24.33;;;;;;;14.32;41.55;95029.63;5096719;28;20521;-72
2021/03/13 11:36:19;;;;;;;14.80;9.93;;;;;;;13.73;41.89;95023.63;5100385;28;20463;-69
2021/03/13 11:38:45;;;;;;;15.03;10.53;;;;;;;14.01;42.13;95022.94;5098768;28;20487;-70